sensor_id;sensor_type;location;lat;lon;timestamp;temperature;humidity
3330;DHT22;1677;49.576;10.990;2023-04-25T00:01:38;9.70;99.90
3330;DHT22;1677;49.576;10.990;2023-04-25T00:04:04;9.80;99.90
3330;DHT22;1677;49.576;10.990;2023-04-25T00:06:34;9.70;99.90
3330;DHT22;1677;49.576;10.990;2023-04-25T00:09:04;9.90;99.90
3330;DHT22;1677;49.576;10.990;2023-04-25T00:11:33;9.90;99.90
3330;DHT22;1677;49.576;10.990;2023-04-25T00:13:58;9.80;99.90
3330;DHT22;1677;49.576;10.990;2023-04-25T00:16:25;9.90;99.90
3330;DHT22;1677;49.576;10.990;2023-04-25T00:18:50;9.90;99.90
3330;DHT22;1677;49.576;10.990;2023-04-25T00:21:19;10.00;99.90
3330;DHT22;1677;49.576;10.990;2023-04-25T00:23:46;10.00;99.90
3330;DHT22;1677;49.576;10.990;2023-04-25T00:26:12;10.10;99.90
3330;DHT22;1677;49.576;10.990;2023-04-25T00:28:38;10.00;99.90
3330;DHT22;1677;49.576;10.990;2023-04-25T00:31:04;10.00;99.90
3330;DHT22;1677;49.576;10.990;2023-04-25T00:33:29;10.10;99.90
3330;DHT22;1677;49.576;10.990;2023-04-25T00:35:55;10.10;99.90
3330;DHT22;1677;49.576;10.990;2023-04-25T00:38:21;10.00;99.90
3330;DHT22;1677;49.576;10.990;2023-04-25T00:40:47;9.90;99.90
3330;DHT22;1677;49.576;10.990;2023-04-25T00:43:12;9.90;99.90
3330;DHT22;1677;49.576;10.990;2023-04-25T00:45:39;9.90;99.90
3330;DHT22;1677;49.576;10.990;2023-04-25T00:48:05;9.90;99.90
3330;DHT22;1677;49.576;10.990;2023-04-25T00:50:35;9.80;99.90
3330;DHT22;1677;49.576;10.990;2023-04-25T00:53:01;9.80;99.90
3330;DHT22;1677;49.576;10.990;2023-04-25T00:55:28;9.90;99.90
3330;DHT22;1677;49.576;10.990;2023-04-25T00:57:54;10.00;99.90
3330;DHT22;1677;49.576;10.990;2023-04-25T01:00:20;10.00;99.90
3330;DHT22;1677;49.576;10.990;2023-04-25T01:02:46;9.90;99.90
3330;DHT22;1677;49.576;10.990;2023-04-25T01:05:12;9.80;99.90
3330;DHT22;1677;49.576;10.990;2023-04-25T01:07:39;9.80;99.90
3330;DHT22;1677;49.576;10.990;2023-04-25T01:10:05;9.70;99.90
3330;DHT22;1677;49.576;10.990;2023-04-25T01:12:31;9.60;99.90
3330;DHT22;1677;49.576;10.990;2023-04-25T01:14:57;9.60;99.90
3330;DHT22;1677;49.576;10.990;2023-04-25T01:17:22;9.50;99.90
3330;DHT22;1677;49.576;10.990;2023-04-25T01:19:49;9.50;99.90
3330;DHT22;1677;49.576;10.990;2023-04-25T01:22:16;9.50;99.90
3330;DHT22;1677;49.576;10.990;2023-04-25T01:24:42;9.50;99.90
3330;DHT22;1677;49.576;10.990;2023-04-25T01:27:08;9.50;99.90
3330;DHT22;1677;49.576;10.990;2023-04-25T01:29:35;9.50;99.90
3330;DHT22;1677;49.576;10.990;2023-04-25T01:32:01;9.50;99.90
3330;DHT22;1677;49.576;10.990;2023-04-25T01:34:27;9.60;99.90
3330;DHT22;1677;49.576;10.990;2023-04-25T01:36:53;9.60;99.90
3330;DHT22;1677;49.576;10.990;2023-04-25T01:39:19;9.60;99.90
3330;DHT22;1677;49.576;10.990;2023-04-25T01:41:48;9.60;99.90
3330;DHT22;1677;49.576;10.990;2023-04-25T01:44:14;9.50;99.90
3330;DHT22;1677;49.576;10.990;2023-04-25T01:46:40;9.50;99.90
3330;DHT22;1677;49.576;10.990;2023-04-25T01:49:06;9.50;99.90
3330;DHT22;1677;49.576;10.990;2023-04-25T01:51:31;9.50;99.90
3330;DHT22;1677;49.576;10.990;2023-04-25T01:53:58;9.50;99.90
3330;DHT22;1677;49.576;10.990;2023-04-25T01:56:23;9.40;99.90
3330;DHT22;1677;49.576;10.990;2023-04-25T01:58:49;9.40;99.90
3330;DHT22;1677;49.576;10.990;2023-04-25T02:01:14;9.30;99.90
3330;DHT22;1677;49.576;10.990;2023-04-25T02:03:40;9.50;99.90
3330;DHT22;1677;49.576;10.990;2023-04-25T02:06:06;9.60;99.90
3330;DHT22;1677;49.576;10.990;2023-04-25T02:08:31;9.60;99.90
3330;DHT22;1677;49.576;10.990;2023-04-25T02:10:57;9.50;99.90
3330;DHT22;1677;49.576;10.990;2023-04-25T02:13:23;9.50;99.90
3330;DHT22;1677;49.576;10.990;2023-04-25T02:15:48;9.50;99.90
3330;DHT22;1677;49.576;10.990;2023-04-25T02:18:14;9.40;99.90
3330;DHT22;1677;49.576;10.990;2023-04-25T02:20:41;9.40;99.90
3330;DHT22;1677;49.576;10.990;2023-04-25T02:23:07;9.40;99.90
3330;DHT22;1677;49.576;10.990;2023-04-25T02:25:32;9.30;99.90
3330;DHT22;1677;49.576;10.990;2023-04-25T02:27:58;9.20;99.90
3330;DHT22;1677;49.576;10.990;2023-04-25T02:30:24;9.20;99.90
3330;DHT22;1677;49.576;10.990;2023-04-25T02:32:49;9.10;99.90
3330;DHT22;1677;49.576;10.990;2023-04-25T02:35:15;9.00;99.90
3330;DHT22;1677;49.576;10.990;2023-04-25T02:37:41;9.00;99.90
3330;DHT22;1677;49.576;10.990;2023-04-25T02:40:07;8.90;99.90
3330;DHT22;1677;49.576;10.990;2023-04-25T02:42:33;8.90;99.90
3330;DHT22;1677;49.576;10.990;2023-04-25T02:44:59;8.80;99.90
3330;DHT22;1677;49.576;10.990;2023-04-25T02:47:25;8.70;99.90
3330;DHT22;1677;49.576;10.990;2023-04-25T02:49:50;8.80;99.90
3330;DHT22;1677;49.576;10.990;2023-04-25T02:52:16;8.70;99.90
3330;DHT22;1677;49.576;10.990;2023-04-25T02:54:42;8.70;99.90
3330;DHT22;1677;49.576;10.990;2023-04-25T02:57:07;8.60;99.90
3330;DHT22;1677;49.576;10.990;2023-04-25T02:59:33;8.50;99.90
3330;DHT22;1677;49.576;10.990;2023-04-25T03:01:59;8.50;99.90
3330;DHT22;1677;49.576;10.990;2023-04-25T03:04:25;8.50;99.90
3330;DHT22;1677;49.576;10.990;2023-04-25T03:06:51;8.40;99.90
3330;DHT22;1677;49.576;10.990;2023-04-25T03:09:17;8.40;99.90
3330;DHT22;1677;49.576;10.990;2023-04-25T03:11:44;8.40;99.90
3330;DHT22;1677;49.576;10.990;2023-04-25T03:14:11;8.40;99.90
3330;DHT22;1677;49.576;10.990;2023-04-25T03:16:37;8.40;99.90
3330;DHT22;1677;49.576;10.990;2023-04-25T03:19:03;8.40;99.90
3330;DHT22;1677;49.576;10.990;2023-04-25T03:21:30;8.40;99.90
3330;DHT22;1677;49.576;10.990;2023-04-25T03:23:57;8.30;99.90
3330;DHT22;1677;49.576;10.990;2023-04-25T03:26:22;8.30;99.90
3330;DHT22;1677;49.576;10.990;2023-04-25T03:28:48;8.30;99.90
3330;DHT22;1677;49.576;10.990;2023-04-25T03:31:13;8.40;99.90
3330;DHT22;1677;49.576;10.990;2023-04-25T03:33:39;8.30;99.90
3330;DHT22;1677;49.576;10.990;2023-04-25T03:36:05;8.30;99.90
3330;DHT22;1677;49.576;10.990;2023-04-25T03:38:30;8.40;99.90
3330;DHT22;1677;49.576;10.990;2023-04-25T03:40:56;8.30;99.90
3330;DHT22;1677;49.576;10.990;2023-04-25T03:43:22;8.40;99.90
3330;DHT22;1677;49.576;10.990;2023-04-25T03:45:47;8.40;99.90
3330;DHT22;1677;49.576;10.990;2023-04-25T03:48:13;8.40;99.90
3330;DHT22;1677;49.576;10.990;2023-04-25T03:50:38;8.60;99.90
3330;DHT22;1677;49.576;10.990;2023-04-25T03:53:04;8.80;99.90
3330;DHT22;1677;49.576;10.990;2023-04-25T03:55:30;8.60;99.90
3330;DHT22;1677;49.576;10.990;2023-04-25T03:57:57;8.60;99.90
3330;DHT22;1677;49.576;10.990;2023-04-25T04:00:23;8.70;99.90
3330;DHT22;1677;49.576;10.990;2023-04-25T04:02:49;8.90;99.90
3330;DHT22;1677;49.576;10.990;2023-04-25T04:05:15;8.90;99.90
3330;DHT22;1677;49.576;10.990;2023-04-25T04:07:40;8.90;99.90
3330;DHT22;1677;49.576;10.990;2023-04-25T04:10:09;8.90;99.90
3330;DHT22;1677;49.576;10.990;2023-04-25T04:12:34;8.80;99.90
3330;DHT22;1677;49.576;10.990;2023-04-25T04:15:01;8.90;99.90
3330;DHT22;1677;49.576;10.990;2023-04-25T04:17:26;8.90;99.90
3330;DHT22;1677;49.576;10.990;2023-04-25T04:19:52;8.90;99.90
3330;DHT22;1677;49.576;10.990;2023-04-25T04:22:17;9.00;99.90
3330;DHT22;1677;49.576;10.990;2023-04-25T04:24:43;9.00;99.90
3330;DHT22;1677;49.576;10.990;2023-04-25T04:27:12;9.00;99.90
3330;DHT22;1677;49.576;10.990;2023-04-25T04:29:38;9.00;99.90
3330;DHT22;1677;49.576;10.990;2023-04-25T04:32:04;9.10;99.90
3330;DHT22;1677;49.576;10.990;2023-04-25T04:34:30;9.10;99.90
3330;DHT22;1677;49.576;10.990;2023-04-25T04:36:56;9.10;99.90
3330;DHT22;1677;49.576;10.990;2023-04-25T04:39:22;9.00;99.90
3330;DHT22;1677;49.576;10.990;2023-04-25T04:41:48;9.00;99.90
3330;DHT22;1677;49.576;10.990;2023-04-25T04:44:14;9.20;99.90
3330;DHT22;1677;49.576;10.990;2023-04-25T04:46:40;9.40;99.90
3330;DHT22;1677;49.576;10.990;2023-04-25T04:49:08;9.40;99.90
3330;DHT22;1677;49.576;10.990;2023-04-25T04:51:34;9.60;99.90
3330;DHT22;1677;49.576;10.990;2023-04-25T04:54:00;9.60;99.90
3330;DHT22;1677;49.576;10.990;2023-04-25T04:56:28;9.40;99.90
3330;DHT22;1677;49.576;10.990;2023-04-25T04:58:54;9.40;99.90
3330;DHT22;1677;49.576;10.990;2023-04-25T05:01:20;9.30;99.90
3330;DHT22;1677;49.576;10.990;2023-04-25T05:03:45;9.30;99.90
3330;DHT22;1677;49.576;10.990;2023-04-25T05:06:11;9.30;99.90
3330;DHT22;1677;49.576;10.990;2023-04-25T05:08:37;9.40;99.90
3330;DHT22;1677;49.576;10.990;2023-04-25T05:11:02;9.40;99.90
3330;DHT22;1677;49.576;10.990;2023-04-25T05:13:28;9.40;99.90
3330;DHT22;1677;49.576;10.990;2023-04-25T05:15:53;9.40;99.90
3330;DHT22;1677;49.576;10.990;2023-04-25T05:18:19;9.60;99.90
3330;DHT22;1677;49.576;10.990;2023-04-25T05:20:45;9.50;99.90
3330;DHT22;1677;49.576;10.990;2023-04-25T05:23:10;9.50;99.90
3330;DHT22;1677;49.576;10.990;2023-04-25T05:25:36;9.50;99.90
3330;DHT22;1677;49.576;10.990;2023-04-25T05:28:01;9.50;99.90
3330;DHT22;1677;49.576;10.990;2023-04-25T05:30:27;9.50;99.90
3330;DHT22;1677;49.576;10.990;2023-04-25T05:32:53;9.50;99.90
3330;DHT22;1677;49.576;10.990;2023-04-25T05:35:18;9.40;99.90
3330;DHT22;1677;49.576;10.990;2023-04-25T05:37:44;9.50;99.90
3330;DHT22;1677;49.576;10.990;2023-04-25T05:40:09;9.50;99.90
3330;DHT22;1677;49.576;10.990;2023-04-25T05:42:35;9.60;99.90
3330;DHT22;1677;49.576;10.990;2023-04-25T05:45:01;9.50;99.90
3330;DHT22;1677;49.576;10.990;2023-04-25T05:47:26;9.50;99.90
3330;DHT22;1677;49.576;10.990;2023-04-25T05:49:52;9.60;99.90
3330;DHT22;1677;49.576;10.990;2023-04-25T05:52:18;9.70;99.90
3330;DHT22;1677;49.576;10.990;2023-04-25T05:54:43;9.80;99.90
3330;DHT22;1677;49.576;10.990;2023-04-25T05:57:21;9.80;99.90
3330;DHT22;1677;49.576;10.990;2023-04-25T05:59:48;9.60;99.90
3330;DHT22;1677;49.576;10.990;2023-04-25T06:02:13;9.70;99.90
3330;DHT22;1677;49.576;10.990;2023-04-25T06:04:39;9.80;99.90
3330;DHT22;1677;49.576;10.990;2023-04-25T06:07:04;9.80;99.90
3330;DHT22;1677;49.576;10.990;2023-04-25T06:09:30;9.90;99.90
3330;DHT22;1677;49.576;10.990;2023-04-25T06:11:55;9.90;99.90
3330;DHT22;1677;49.576;10.990;2023-04-25T06:14:21;9.80;99.90
3330;DHT22;1677;49.576;10.990;2023-04-25T06:16:46;9.80;99.90
3330;DHT22;1677;49.576;10.990;2023-04-25T06:19:12;9.80;99.90
3330;DHT22;1677;49.576;10.990;2023-04-25T06:21:37;9.80;99.90
3330;DHT22;1677;49.576;10.990;2023-04-25T06:24:03;9.80;99.90
3330;DHT22;1677;49.576;10.990;2023-04-25T06:26:29;9.80;99.90
3330;DHT22;1677;49.576;10.990;2023-04-25T06:28:54;9.70;99.90
3330;DHT22;1677;49.576;10.990;2023-04-25T06:31:20;9.70;99.90
3330;DHT22;1677;49.576;10.990;2023-04-25T06:33:46;9.90;99.90
3330;DHT22;1677;49.576;10.990;2023-04-25T06:36:13;10.00;99.90
3330;DHT22;1677;49.576;10.990;2023-04-25T06:38:39;10.10;99.90
3330;DHT22;1677;49.576;10.990;2023-04-25T06:41:04;10.20;99.90
3330;DHT22;1677;49.576;10.990;2023-04-25T06:43:30;10.40;99.90
3330;DHT22;1677;49.576;10.990;2023-04-25T06:45:59;10.60;99.90
3330;DHT22;1677;49.576;10.990;2023-04-25T06:48:26;10.90;99.90
3330;DHT22;1677;49.576;10.990;2023-04-25T06:50:51;11.10;99.90
3330;DHT22;1677;49.576;10.990;2023-04-25T06:53:17;11.40;99.90
3330;DHT22;1677;49.576;10.990;2023-04-25T06:55:42;11.30;99.90
3330;DHT22;1677;49.576;10.990;2023-04-25T06:58:08;11.30;99.90
3330;DHT22;1677;49.576;10.990;2023-04-25T07:00:33;10.90;99.90
3330;DHT22;1677;49.576;10.990;2023-04-25T07:02:59;10.50;99.90
3330;DHT22;1677;49.576;10.990;2023-04-25T07:05:25;10.20;99.90
3330;DHT22;1677;49.576;10.990;2023-04-25T07:07:50;10.00;99.90
3330;DHT22;1677;49.576;10.990;2023-04-25T07:10:16;9.80;99.90
3330;DHT22;1677;49.576;10.990;2023-04-25T07:12:41;9.80;99.90
3330;DHT22;1677;49.576;10.990;2023-04-25T07:15:07;9.90;99.90
3330;DHT22;1677;49.576;10.990;2023-04-25T07:17:35;9.70;99.90
3330;DHT22;1677;49.576;10.990;2023-04-25T07:20:00;9.60;99.90
3330;DHT22;1677;49.576;10.990;2023-04-25T07:22:26;9.40;99.90
3330;DHT22;1677;49.576;10.990;2023-04-25T07:24:51;9.40;99.90
3330;DHT22;1677;49.576;10.990;2023-04-25T07:27:18;9.40;99.90
3330;DHT22;1677;49.576;10.990;2023-04-25T07:29:44;9.40;99.90
3330;DHT22;1677;49.576;10.990;2023-04-25T07:32:10;9.50;99.90
3330;DHT22;1677;49.576;10.990;2023-04-25T07:34:37;9.50;99.90
3330;DHT22;1677;49.576;10.990;2023-04-25T07:37:04;9.50;99.90
3330;DHT22;1677;49.576;10.990;2023-04-25T07:39:30;9.60;99.90
3330;DHT22;1677;49.576;10.990;2023-04-25T07:41:55;9.50;99.90
3330;DHT22;1677;49.576;10.990;2023-04-25T07:44:21;9.50;99.90
3330;DHT22;1677;49.576;10.990;2023-04-25T07:46:47;9.50;99.90
3330;DHT22;1677;49.576;10.990;2023-04-25T07:49:12;9.60;99.90
3330;DHT22;1677;49.576;10.990;2023-04-25T07:51:38;9.60;99.90
3330;DHT22;1677;49.576;10.990;2023-04-25T07:54:04;9.60;99.90
3330;DHT22;1677;49.576;10.990;2023-04-25T07:56:30;9.80;99.90
3330;DHT22;1677;49.576;10.990;2023-04-25T07:58:56;10.20;99.90
3330;DHT22;1677;49.576;10.990;2023-04-25T08:01:21;10.50;99.90
3330;DHT22;1677;49.576;10.990;2023-04-25T08:03:47;11.00;99.90
3330;DHT22;1677;49.576;10.990;2023-04-25T08:06:13;12.00;99.90
3330;DHT22;1677;49.576;10.990;2023-04-25T08:08:38;13.50;99.90
3330;DHT22;1677;49.576;10.990;2023-04-25T08:11:04;14.00;99.90
3330;DHT22;1677;49.576;10.990;2023-04-25T08:13:29;13.90;99.90
3330;DHT22;1677;49.576;10.990;2023-04-25T08:15:55;13.80;99.90
3330;DHT22;1677;49.576;10.990;2023-04-25T08:18:20;14.20;99.90
3330;DHT22;1677;49.576;10.990;2023-04-25T08:20:46;14.60;99.90
3330;DHT22;1677;49.576;10.990;2023-04-25T08:23:12;14.50;99.90
3330;DHT22;1677;49.576;10.990;2023-04-25T08:25:38;14.40;99.90
3330;DHT22;1677;49.576;10.990;2023-04-25T08:28:05;14.30;99.90
3330;DHT22;1677;49.576;10.990;2023-04-25T08:30:30;14.20;99.90
3330;DHT22;1677;49.576;10.990;2023-04-25T08:32:56;14.00;99.90
3330;DHT22;1677;49.576;10.990;2023-04-25T08:35:22;13.90;99.90
3330;DHT22;1677;49.576;10.990;2023-04-25T08:37:47;13.90;99.90
3330;DHT22;1677;49.576;10.990;2023-04-25T08:40:15;13.80;99.90
3330;DHT22;1677;49.576;10.990;2023-04-25T08:42:44;14.00;99.90
3330;DHT22;1677;49.576;10.990;2023-04-25T08:45:10;14.50;99.90
3330;DHT22;1677;49.576;10.990;2023-04-25T08:47:37;14.50;99.90
3330;DHT22;1677;49.576;10.990;2023-04-25T08:50:04;14.10;99.90
3330;DHT22;1677;49.576;10.990;2023-04-25T08:52:41;13.80;99.90
3330;DHT22;1677;49.576;10.990;2023-04-25T08:55:09;14.70;99.90
3330;DHT22;1677;49.576;10.990;2023-04-25T08:57:37;16.80;99.90
3330;DHT22;1677;49.576;10.990;2023-04-25T09:00:03;18.30;99.00
3330;DHT22;1677;49.576;10.990;2023-04-25T09:02:29;20.80;94.90
3330;DHT22;1677;49.576;10.990;2023-04-25T09:04:55;23.70;90.40
3330;DHT22;1677;49.576;10.990;2023-04-25T09:07:21;25.60;68.80
3330;DHT22;1677;49.576;10.990;2023-04-25T09:09:47;26.90;64.20
3330;DHT22;1677;49.576;10.990;2023-04-25T09:12:13;28.00;58.30
3330;DHT22;1677;49.576;10.990;2023-04-25T09:14:38;29.00;55.50
3330;DHT22;1677;49.576;10.990;2023-04-25T09:17:05;28.90;46.50
3330;DHT22;1677;49.576;10.990;2023-04-25T09:19:34;28.90;44.90
3330;DHT22;1677;49.576;10.990;2023-04-25T09:22:02;28.80;41.90
3330;DHT22;1677;49.576;10.990;2023-04-25T09:24:43;29.80;42.70
3330;DHT22;1677;49.576;10.990;2023-04-25T09:27:11;29.90;37.20
3330;DHT22;1677;49.576;10.990;2023-04-25T09:29:39;28.40;40.40
3330;DHT22;1677;49.576;10.990;2023-04-25T09:34:40;26.70;41.80
3330;DHT22;1677;49.576;10.990;2023-04-25T09:37:10;27.00;42.20
3330;DHT22;1677;49.576;10.990;2023-04-25T09:39:39;27.60;45.00
3330;DHT22;1677;49.576;10.990;2023-04-25T09:42:05;28.20;40.10
3330;DHT22;1677;49.576;10.990;2023-04-25T09:44:31;27.50;39.10
3330;DHT22;1677;49.576;10.990;2023-04-25T09:46:57;25.60;41.70
3330;DHT22;1677;49.576;10.990;2023-04-25T09:49:23;24.80;42.60
3330;DHT22;1677;49.576;10.990;2023-04-25T09:51:58;24.90;41.00
3330;DHT22;1677;49.576;10.990;2023-04-25T09:54:25;26.80;40.50
3330;DHT22;1677;49.576;10.990;2023-04-25T09:56:52;28.50;34.50
3330;DHT22;1677;49.576;10.990;2023-04-25T09:59:21;28.00;31.70
3330;DHT22;1677;49.576;10.990;2023-04-25T10:01:48;28.80;32.70
3330;DHT22;1677;49.576;10.990;2023-04-25T10:04:22;27.40;32.00
3330;DHT22;1677;49.576;10.990;2023-04-25T10:06:49;25.00;35.00
3330;DHT22;1677;49.576;10.990;2023-04-25T10:09:20;23.30;37.60
3330;DHT22;1677;49.576;10.990;2023-04-25T10:11:47;21.30;40.80
3330;DHT22;1677;49.576;10.990;2023-04-25T10:14:16;20.00;42.70
3330;DHT22;1677;49.576;10.990;2023-04-25T10:16:42;19.00;45.90
3330;DHT22;1677;49.576;10.990;2023-04-25T10:19:09;18.30;47.50
3330;DHT22;1677;49.576;10.990;2023-04-25T10:21:43;20.00;48.80
3330;DHT22;1677;49.576;10.990;2023-04-25T10:24:10;23.20;45.00
3330;DHT22;1677;49.576;10.990;2023-04-25T10:26:36;25.00;40.00
3330;DHT22;1677;49.576;10.990;2023-04-25T10:29:03;24.30;41.00
3330;DHT22;1677;49.576;10.990;2023-04-25T10:31:31;25.80;38.30
3330;DHT22;1677;49.576;10.990;2023-04-25T10:33:57;25.30;37.70
3330;DHT22;1677;49.576;10.990;2023-04-25T10:36:24;22.80;38.00
3330;DHT22;1677;49.576;10.990;2023-04-25T10:38:52;23.10;42.60
3330;DHT22;1677;49.576;10.990;2023-04-25T10:41:22;23.80;40.10
3330;DHT22;1677;49.576;10.990;2023-04-25T10:43:49;25.20;40.40
3330;DHT22;1677;49.576;10.990;2023-04-25T10:46:24;25.80;38.60
3330;DHT22;1677;49.576;10.990;2023-04-25T10:48:51;27.10;36.50
3330;DHT22;1677;49.576;10.990;2023-04-25T10:51:19;28.80;33.10
3330;DHT22;1677;49.576;10.990;2023-04-25T10:53:45;28.30;31.60
3330;DHT22;1677;49.576;10.990;2023-04-25T10:56:30;26.20;33.30
3330;DHT22;1677;49.576;10.990;2023-04-25T11:01:43;21.60;40.00
3330;DHT22;1677;49.576;10.990;2023-04-25T11:04:31;19.70;44.00
3330;DHT22;1677;49.576;10.990;2023-04-25T11:09:35;17.40;49.90
3330;DHT22;1677;49.576;10.990;2023-04-25T11:12:00;16.40;53.10
3330;DHT22;1677;49.576;10.990;2023-04-25T11:14:26;16.10;53.80
3330;DHT22;1677;49.576;10.990;2023-04-25T11:16:59;16.10;55.50
3330;DHT22;1677;49.576;10.990;2023-04-25T11:19:25;15.90;56.70
3330;DHT22;1677;49.576;10.990;2023-04-25T11:21:59;17.30;59.10
3330;DHT22;1677;49.576;10.990;2023-04-25T11:24:35;19.60;53.30
3330;DHT22;1677;49.576;10.990;2023-04-25T11:27:02;19.60;47.50
3330;DHT22;1677;49.576;10.990;2023-04-25T11:29:30;18.80;50.90
3330;DHT22;1677;49.576;10.990;2023-04-25T11:31:57;18.70;51.10
3330;DHT22;1677;49.576;10.990;2023-04-25T11:34:27;20.40;50.90
3330;DHT22;1677;49.576;10.990;2023-04-25T11:36:56;21.40;47.50
3330;DHT22;1677;49.576;10.990;2023-04-25T11:39:21;22.40;45.60
3330;DHT22;1677;49.576;10.990;2023-04-25T11:41:48;22.70;41.60
3330;DHT22;1677;49.576;10.990;2023-04-25T11:44:17;21.40;43.50
3330;DHT22;1677;49.576;10.990;2023-04-25T11:46:44;19.40;44.50
3330;DHT22;1677;49.576;10.990;2023-04-25T11:49:10;18.30;47.10
3330;DHT22;1677;49.576;10.990;2023-04-25T11:51:46;17.60;50.00
3330;DHT22;1677;49.576;10.990;2023-04-25T11:54:12;16.90;50.80
3330;DHT22;1677;49.576;10.990;2023-04-25T11:56:41;16.40;52.50
3330;DHT22;1677;49.576;10.990;2023-04-25T11:59:07;16.30;51.60
3330;DHT22;1677;49.576;10.990;2023-04-25T12:01:34;15.50;52.80
3330;DHT22;1677;49.576;10.990;2023-04-25T12:06:38;14.90;55.70
3330;DHT22;1677;49.576;10.990;2023-04-25T12:09:10;15.00;56.20
3330;DHT22;1677;49.576;10.990;2023-04-25T12:14:12;15.60;56.60
3330;DHT22;1677;49.576;10.990;2023-04-25T12:16:44;16.10;55.80
3330;DHT22;1677;49.576;10.990;2023-04-25T12:19:13;16.40;56.30
3330;DHT22;1677;49.576;10.990;2023-04-25T12:21:39;16.20;55.50
3330;DHT22;1677;49.576;10.990;2023-04-25T12:24:13;16.20;53.90
3330;DHT22;1677;49.576;10.990;2023-04-25T12:26:49;16.20;54.60
3330;DHT22;1677;49.576;10.990;2023-04-25T12:29:20;15.90;56.10
3330;DHT22;1677;49.576;10.990;2023-04-25T12:31:46;15.60;56.00
3330;DHT22;1677;49.576;10.990;2023-04-25T12:34:12;15.40;56.30
3330;DHT22;1677;49.576;10.990;2023-04-25T12:36:37;15.10;57.30
3330;DHT22;1677;49.576;10.990;2023-04-25T12:39:03;15.00;59.00
3330;DHT22;1677;49.576;10.990;2023-04-25T12:41:30;15.00;56.40
3330;DHT22;1677;49.576;10.990;2023-04-25T12:43:55;14.90;57.60
3330;DHT22;1677;49.576;10.990;2023-04-25T12:46:21;15.00;58.90
3330;DHT22;1677;49.576;10.990;2023-04-25T12:48:48;15.20;58.00
3330;DHT22;1677;49.576;10.990;2023-04-25T12:51:14;15.40;58.30
3330;DHT22;1677;49.576;10.990;2023-04-25T12:53:40;15.60;57.10
3330;DHT22;1677;49.576;10.990;2023-04-25T12:56:07;15.50;58.60
3330;DHT22;1677;49.576;10.990;2023-04-25T12:58:33;15.50;59.20
3330;DHT22;1677;49.576;10.990;2023-04-25T13:00:59;15.40;59.30
3330;DHT22;1677;49.576;10.990;2023-04-25T13:03:25;15.50;56.70
3330;DHT22;1677;49.576;10.990;2023-04-25T13:05:51;15.70;57.30
3330;DHT22;1677;49.576;10.990;2023-04-25T13:08:18;16.00;59.00
3330;DHT22;1677;49.576;10.990;2023-04-25T13:10:44;15.80;57.60
3330;DHT22;1677;49.576;10.990;2023-04-25T13:13:09;15.80;57.20
3330;DHT22;1677;49.576;10.990;2023-04-25T13:15:35;15.90;56.50
3330;DHT22;1677;49.576;10.990;2023-04-25T13:18:02;15.50;57.10
3330;DHT22;1677;49.576;10.990;2023-04-25T13:20:28;15.20;59.20
3330;DHT22;1677;49.576;10.990;2023-04-25T13:22:53;15.20;59.90
3330;DHT22;1677;49.576;10.990;2023-04-25T13:25:19;15.30;59.30
3330;DHT22;1677;49.576;10.990;2023-04-25T13:27:45;15.00;60.40
3330;DHT22;1677;49.576;10.990;2023-04-25T13:30:10;14.70;59.60
3330;DHT22;1677;49.576;10.990;2023-04-25T13:32:37;14.50;62.20
3330;DHT22;1677;49.576;10.990;2023-04-25T13:35:10;14.50;62.30
3330;DHT22;1677;49.576;10.990;2023-04-25T13:37:37;14.60;63.10
3330;DHT22;1677;49.576;10.990;2023-04-25T13:40:05;14.40;63.50
3330;DHT22;1677;49.576;10.990;2023-04-25T13:42:33;14.20;63.20
3330;DHT22;1677;49.576;10.990;2023-04-25T13:44:58;14.40;64.10
3330;DHT22;1677;49.576;10.990;2023-04-25T13:47:25;14.30;64.60
3330;DHT22;1677;49.576;10.990;2023-04-25T13:49:51;14.30;62.90
3330;DHT22;1677;49.576;10.990;2023-04-25T13:52:17;14.40;66.10
3330;DHT22;1677;49.576;10.990;2023-04-25T13:54:43;14.60;64.30
3330;DHT22;1677;49.576;10.990;2023-04-25T13:57:08;14.70;65.60
3330;DHT22;1677;49.576;10.990;2023-04-25T13:59:35;14.60;65.50
3330;DHT22;1677;49.576;10.990;2023-04-25T14:02:01;14.60;62.60
3330;DHT22;1677;49.576;10.990;2023-04-25T14:04:27;14.60;64.20
3330;DHT22;1677;49.576;10.990;2023-04-25T14:06:53;14.40;65.20
3330;DHT22;1677;49.576;10.990;2023-04-25T14:09:19;14.10;65.30
3330;DHT22;1677;49.576;10.990;2023-04-25T14:11:47;13.70;66.10
3330;DHT22;1677;49.576;10.990;2023-04-25T14:14:13;13.50;69.20
3330;DHT22;1677;49.576;10.990;2023-04-25T14:16:41;13.40;70.40
3330;DHT22;1677;49.576;10.990;2023-04-25T14:19:07;13.30;70.90
3330;DHT22;1677;49.576;10.990;2023-04-25T14:21:32;13.40;70.50
3330;DHT22;1677;49.576;10.990;2023-04-25T14:23:58;13.50;72.80
3330;DHT22;1677;49.576;10.990;2023-04-25T14:26:24;13.80;70.20
3330;DHT22;1677;49.576;10.990;2023-04-25T14:28:51;13.90;70.00
3330;DHT22;1677;49.576;10.990;2023-04-25T14:31:16;13.60;68.60
3330;DHT22;1677;49.576;10.990;2023-04-25T14:33:42;13.50;70.70
3330;DHT22;1677;49.576;10.990;2023-04-25T14:36:08;13.40;71.20
3330;DHT22;1677;49.576;10.990;2023-04-25T14:38:33;13.30;70.20
3330;DHT22;1677;49.576;10.990;2023-04-25T14:40:59;13.40;71.40
3330;DHT22;1677;49.576;10.990;2023-04-25T14:43:24;13.50;70.50
3330;DHT22;1677;49.576;10.990;2023-04-25T14:45:50;13.50;70.70
3330;DHT22;1677;49.576;10.990;2023-04-25T14:48:16;13.60;71.50
3330;DHT22;1677;49.576;10.990;2023-04-25T14:50:44;13.60;70.50
3330;DHT22;1677;49.576;10.990;2023-04-25T14:53:10;13.50;70.90
3330;DHT22;1677;49.576;10.990;2023-04-25T14:55:36;13.60;70.50
3330;DHT22;1677;49.576;10.990;2023-04-25T14:58:01;13.70;71.80
3330;DHT22;1677;49.576;10.990;2023-04-25T15:00:27;13.50;71.50
3330;DHT22;1677;49.576;10.990;2023-04-25T15:02:52;13.50;72.50
3330;DHT22;1677;49.576;10.990;2023-04-25T15:05:18;13.50;73.80
3330;DHT22;1677;49.576;10.990;2023-04-25T15:07:44;13.60;72.90
3330;DHT22;1677;49.576;10.990;2023-04-25T15:10:10;13.50;71.70
3330;DHT22;1677;49.576;10.990;2023-04-25T15:12:41;13.40;71.60
3330;DHT22;1677;49.576;10.990;2023-04-25T15:15:08;13.50;72.00
3330;DHT22;1677;49.576;10.990;2023-04-25T15:17:41;13.70;71.00
3330;DHT22;1677;49.576;10.990;2023-04-25T15:20:08;13.60;70.90
3330;DHT22;1677;49.576;10.990;2023-04-25T15:22:39;13.50;70.40
3330;DHT22;1677;49.576;10.990;2023-04-25T15:25:06;13.40;71.00
3330;DHT22;1677;49.576;10.990;2023-04-25T15:27:33;13.20;71.60
3330;DHT22;1677;49.576;10.990;2023-04-25T15:30:04;13.10;72.20
3330;DHT22;1677;49.576;10.990;2023-04-25T15:32:31;13.00;73.50
3330;DHT22;1677;49.576;10.990;2023-04-25T15:34:56;13.00;72.70
3330;DHT22;1677;49.576;10.990;2023-04-25T15:37:22;13.10;72.40
3330;DHT22;1677;49.576;10.990;2023-04-25T15:39:47;13.20;75.30
3330;DHT22;1677;49.576;10.990;2023-04-25T15:42:13;13.20;76.00
3330;DHT22;1677;49.576;10.990;2023-04-25T15:44:38;13.30;75.10
3330;DHT22;1677;49.576;10.990;2023-04-25T15:47:04;13.40;74.80
3330;DHT22;1677;49.576;10.990;2023-04-25T15:49:30;13.40;75.00
3330;DHT22;1677;49.576;10.990;2023-04-25T15:51:55;13.50;76.00
3330;DHT22;1677;49.576;10.990;2023-04-25T15:54:21;13.40;75.30
3330;DHT22;1677;49.576;10.990;2023-04-25T15:56:47;13.40;76.10
3330;DHT22;1677;49.576;10.990;2023-04-25T15:59:13;13.30;75.10
3330;DHT22;1677;49.576;10.990;2023-04-25T16:01:38;13.30;77.10